createdAt,value
2018-08-09T12:40:30.944Z,40.03
2018-08-09T12:43:02.352Z,18.37
2018-08-09T12:45:33.633Z,12.10
2018-08-09T12:48:04.946Z,9.95
2018-08-09T12:50:36.270Z,7.20
2018-08-09T12:53:07.839Z,6.47
2018-08-09T12:55:39.066Z,6.00
2018-08-09T12:58:10.278Z,5.50
2018-08-09T13:00:41.591Z,5.92
2018-08-09T13:03:12.914Z,5.55
2018-08-09T13:05:44.369Z,5.30
2018-08-09T13:08:15.745Z,5.10
2018-08-09T13:10:46.969Z,5.05
2018-08-09T13:13:18.212Z,4.95
2018-08-09T13:15:49.438Z,5.30
2018-08-09T13:18:20.791Z,5.00
2018-08-09T13:20:51.994Z,5.20
2018-08-09T13:23:23.194Z,5.70
2018-08-09T13:25:54.391Z,5.37
2018-08-09T13:28:25.638Z,5.42
2018-08-09T13:30:56.908Z,5.10
2018-08-09T13:33:28.251Z,5.15
2018-08-09T13:35:59.454Z,5.35
2018-08-09T13:38:31.570Z,6.00
2018-08-09T13:41:02.834Z,5.95
2018-08-09T13:43:34.171Z,5.72
2018-08-09T13:46:05.523Z,5.70
2018-08-09T13:48:36.877Z,5.83
2018-08-09T13:51:08.098Z,5.83
2018-08-09T13:53:39.287Z,5.30
2018-08-09T13:56:10.542Z,5.28
2018-08-09T13:58:41.866Z,5.72
2018-08-09T14:01:13.082Z,6.00
2018-08-09T14:03:44.575Z,5.55
2018-08-09T14:06:15.855Z,6.58
2018-08-09T14:08:47.074Z,6.87
2018-08-09T14:11:18.382Z,7.05
2018-08-09T14:13:49.647Z,8.43
2018-08-09T14:16:20.938Z,20.17
2018-08-09T14:18:52.186Z,54.67
2018-08-09T14:21:24.339Z,45.83
2018-08-09T14:23:55.547Z,29.50
2018-08-09T14:26:26.830Z,18.05
2018-08-09T14:28:58.058Z,10.93
2018-08-09T14:31:29.300Z,8.63
2018-08-09T14:34:00.566Z,7.95
2018-08-09T14:36:31.779Z,6.33
2018-08-09T14:41:44.834Z,5.30
2018-08-09T14:44:16.052Z,104.20
2018-08-09T14:46:47.371Z,188.15
2018-08-09T14:49:18.746Z,76.90
2018-08-09T14:51:50.000Z,40.67
2018-08-09T14:54:21.263Z,21.20
2018-08-09T14:56:52.604Z,16.05
2018-08-09T14:59:25.774Z,10.38
2018-08-09T15:01:58.442Z,8.63
2018-08-09T15:04:29.653Z,10.85
2018-08-09T15:07:00.919Z,14.78
2018-08-09T15:09:32.186Z,13.65
2018-08-09T15:12:03.796Z,9.43
2018-08-09T15:14:35.034Z,5.92
2018-08-09T15:17:06.255Z,4.45
2018-08-09T15:19:37.459Z,5.03
2018-08-09T15:22:09.322Z,5.10
2018-08-09T15:24:40.540Z,5.45
2018-08-09T15:27:11.827Z,21.00
2018-08-09T15:29:44.163Z,52.58
2018-08-09T15:32:16.980Z,59.30
2018-08-09T15:34:48.290Z,27.40
2018-08-09T15:37:19.559Z,25.85
2018-08-09T15:39:50.774Z,45.08
2018-08-09T15:42:22.072Z,196.87
2018-08-09T15:44:53.399Z,76.60
2018-08-09T15:47:24.713Z,32.80
2018-08-09T15:49:55.887Z,18.40
2018-08-09T15:52:27.254Z,17.10
2018-08-09T15:54:58.447Z,14.25
2018-08-09T15:57:29.752Z,13.05
2018-08-09T16:00:00.958Z,17.42
2018-08-09T16:02:32.764Z,36.48
2018-08-09T16:05:04.218Z,25.82
2018-08-09T16:07:35.734Z,15.93
2018-08-09T16:10:13.446Z,18.35
2018-08-09T16:12:45.002Z,43.63
2018-08-09T16:15:18.066Z,55.67
2018-08-09T16:17:50.063Z,24.50
2018-08-09T16:20:21.387Z,14.60
2018-08-09T16:22:52.601Z,18.73
2018-08-09T16:25:23.862Z,13.72
2018-08-09T16:27:55.190Z,7.85
2018-08-09T16:30:27.182Z,5.30
2018-08-09T16:32:59.115Z,8.30
2018-08-09T16:35:30.396Z,11.73
2018-08-09T16:38:01.660Z,9.75
2018-08-09T16:40:33.125Z,10.75
2018-08-09T16:43:04.346Z,21.02
2018-08-09T16:45:35.762Z,35.20
2018-08-09T16:48:07.920Z,49.15
2018-08-09T16:51:10.668Z,26.75
2018-08-09T16:53:42.095Z,35.20
2018-08-09T16:56:13.917Z,23.50
2018-08-09T16:58:45.361Z,11.65
2018-08-09T17:01:16.596Z,7.75
2018-08-09T17:03:48.691Z,5.75
2018-08-09T17:06:20.436Z,4.03
2018-08-09T17:08:52.253Z,9.48
2018-08-09T17:11:23.732Z,36.60
2018-08-09T17:13:55.303Z,51.40
2018-08-09T17:43:00.222Z,50.07
2018-08-09T17:47:46.706Z,16.43
2018-08-09T17:50:18.073Z,8.93
2018-08-09T17:52:50.964Z,28.00
2018-08-09T17:55:22.448Z,42.60
2018-08-09T17:57:53.819Z,21.97
2018-08-09T18:00:28.405Z,9.60
2018-08-09T18:02:59.875Z,5.90
2018-08-09T18:05:31.198Z,3.97
2018-08-09T18:08:02.510Z,3.03
2018-08-09T18:10:35.599Z,2.70
2018-08-09T18:13:06.980Z,2.10
2018-08-09T18:15:38.260Z,2.00
2018-08-09T18:18:09.631Z,1.80
2018-08-09T18:20:41.474Z,1.80
2018-08-09T18:23:12.801Z,1.80
2018-08-09T18:25:44.156Z,7.47
2018-08-09T18:28:15.495Z,25.77
2018-08-09T18:30:46.829Z,14.80
2018-08-09T18:33:18.180Z,6.37
2018-08-09T18:35:49.755Z,2.87
2018-08-09T18:38:21.182Z,2.40
2018-08-09T18:40:52.507Z,2.07
2018-08-09T18:43:23.880Z,1.90
2018-08-09T18:45:56.410Z,2.10
2018-08-09T18:48:27.667Z,2.10
2018-08-09T18:50:59.035Z,2.00
2018-08-09T18:53:30.657Z,2.20
2018-08-09T18:56:01.907Z,1.77
2018-08-09T18:58:33.228Z,1.97
2018-08-09T19:01:04.572Z,2.30
2018-08-09T19:03:35.865Z,7.77
2018-08-09T19:06:12.335Z,17.30
2018-08-09T19:08:43.839Z,25.47
2018-08-09T19:11:15.260Z,25.97
2018-08-09T19:13:46.609Z,26.37
2018-08-09T19:16:17.948Z,24.47
2018-08-09T19:18:49.310Z,24.13
2018-08-09T19:21:20.628Z,16.40
2018-08-09T19:23:52.013Z,28.80
2018-08-09T19:26:23.344Z,103.17
2018-08-09T19:28:54.691Z,90.90
2018-08-09T19:31:26.315Z,56.27
2018-08-09T19:33:58.117Z,24.50
2018-08-09T19:36:29.594Z,9.20
2018-08-09T19:39:01.016Z,7.20
2018-08-09T19:41:32.343Z,6.40
2018-08-09T19:44:03.742Z,5.00
2018-08-09T19:46:35.244Z,4.10
2018-08-09T19:49:06.765Z,3.63
2018-08-09T19:51:38.299Z,3.23
2018-08-09T19:54:10.512Z,3.33
2018-08-09T19:56:41.768Z,3.20
2018-08-09T19:59:13.251Z,3.00
2018-08-09T20:01:44.651Z,4.80
2018-08-09T20:04:16.060Z,4.90
2018-08-09T20:06:47.379Z,4.90
2018-08-09T20:09:18.746Z,4.83
2018-08-09T20:11:50.055Z,16.70
2018-08-09T20:14:21.573Z,34.27
2018-08-09T20:16:52.901Z,63.23
2018-08-09T20:19:24.293Z,94.43
2018-08-09T20:21:55.588Z,89.53
2018-08-09T20:24:26.892Z,81.23
2018-08-09T20:26:58.188Z,71.57
2018-08-09T20:29:29.552Z,63.67
2018-08-09T20:32:00.884Z,56.80
2018-08-09T20:34:32.335Z,51.60
2018-08-09T20:37:04.324Z,44.10
2018-08-09T20:39:35.724Z,38.70
2018-08-09T20:42:07.121Z,34.57
2018-08-09T20:44:38.470Z,30.23
